createdAt,value
2019-05-15T06:00:31.718Z,1020.44
2019-05-15T06:01:31.641Z,1020.44
2019-05-15T06:02:43.856Z,1020.41
2019-05-15T06:03:32.655Z,1020.46
2019-05-15T06:04:31.643Z,1020.45
2019-05-15T06:05:31.606Z,1020.44
2019-05-15T06:06:31.599Z,1020.46
2019-05-15T06:07:31.574Z,1020.47
2019-05-15T06:09:48.634Z,1020.46
2019-05-15T06:10:49.516Z,1020.52
2019-05-15T06:11:48.843Z,1020.40
2019-05-15T06:12:49.042Z,1020.40
2019-05-15T06:13:52.383Z,1020.46
2019-05-15T06:14:48.515Z,1020.44
2019-05-15T06:15:48.765Z,1020.44
2019-05-15T06:16:48.309Z,1020.42
2019-05-15T06:17:48.188Z,1020.41
2019-05-15T06:18:49.138Z,1020.42
2019-05-15T06:19:48.214Z,1020.45
2019-05-15T06:20:49.365Z,1020.47
2019-05-15T06:21:56.726Z,1020.47
2019-05-15T06:22:48.781Z,1020.44
2019-05-15T06:23:54.529Z,1020.56
2019-05-15T06:24:48.700Z,1020.49
2019-05-15T06:25:48.586Z,1020.45
2019-05-15T06:26:48.314Z,1020.46
2019-05-15T06:27:48.126Z,1020.46
2019-05-15T06:28:49.079Z,1020.46
2019-05-15T06:29:48.504Z,1020.46
2019-05-15T06:30:48.642Z,1020.50
2019-05-15T06:31:48.443Z,1020.45
2019-05-15T06:33:01.970Z,1020.50
2019-05-15T06:33:49.038Z,1020.49
2019-05-15T06:34:48.588Z,1020.52
2019-05-15T06:35:48.846Z,1020.42
2019-05-15T06:36:48.553Z,1020.40
2019-05-15T06:37:48.452Z,1020.43
2019-05-15T06:38:48.422Z,1020.50
2019-05-15T06:39:48.118Z,1020.45
2019-05-15T06:40:48.592Z,1020.49
2019-05-15T06:41:48.240Z,1020.44
2019-05-15T06:42:48.406Z,1020.46
2019-05-15T06:43:48.328Z,1020.43
2019-05-15T06:44:48.363Z,1020.47
2019-05-15T06:45:48.679Z,1020.42
2019-05-15T06:46:48.349Z,1020.41
2019-05-15T06:47:48.283Z,1020.46
2019-05-15T06:48:48.637Z,1020.45
2019-05-15T06:49:48.663Z,1020.40
2019-05-15T06:50:48.926Z,1020.37
2019-05-15T06:51:48.711Z,1020.41
2019-05-15T06:52:48.629Z,1020.38
2019-05-15T06:53:49.215Z,1020.31
2019-05-15T06:54:48.541Z,1020.33
2019-05-15T06:55:48.592Z,1020.30
2019-05-15T06:56:49.251Z,1020.30
2019-05-15T06:57:48.474Z,1020.30
2019-05-15T06:58:48.720Z,1020.28
2019-05-15T06:59:48.383Z,1020.32
2019-05-15T07:00:48.814Z,1020.29
2019-05-15T07:01:48.114Z,1020.30
2019-05-15T07:02:48.691Z,1020.25
2019-05-15T07:03:48.407Z,1020.27
2019-05-15T07:04:48.789Z,1020.26
2019-05-15T07:05:50.305Z,1020.37
2019-05-15T07:06:48.964Z,1020.34
2019-05-15T07:07:48.858Z,1020.32
2019-05-15T07:08:49.605Z,1020.33
2019-05-15T07:09:48.647Z,1020.32
2019-05-15T07:10:48.680Z,1020.35
2019-05-15T07:11:48.262Z,1020.37
2019-05-15T07:12:50.994Z,1020.35
2019-05-15T07:13:48.743Z,1020.31
2019-05-15T07:14:48.744Z,1020.27
2019-05-15T07:15:49.459Z,1020.29
2019-05-15T07:16:48.790Z,1020.27
2019-05-15T07:17:48.421Z,1020.20
2019-05-15T07:18:48.499Z,1020.28
2019-05-15T07:19:48.504Z,1020.28
2019-05-15T07:20:48.838Z,1020.21
2019-05-15T07:21:48.711Z,1020.20
2019-05-15T07:22:49.113Z,1020.25
2019-05-15T07:23:49.568Z,1020.20
2019-05-15T07:24:47.820Z,1020.30
2019-05-15T07:25:49.858Z,1020.28
2019-05-15T07:26:48.375Z,1020.32
2019-05-15T07:27:47.895Z,1020.25
2019-05-15T07:28:48.568Z,1020.23
2019-05-15T07:29:48.742Z,1020.28
2019-05-15T07:30:49.498Z,1020.32
2019-05-15T07:31:47.793Z,1020.26
2019-05-15T07:32:48.717Z,1020.26
2019-05-15T07:33:49.108Z,1020.24
2019-05-15T07:34:48.392Z,1020.22
2019-05-15T07:35:49.393Z,1020.25
2019-05-15T07:36:49.192Z,1020.23
2019-05-15T07:37:47.875Z,1020.19
2019-05-15T07:38:48.512Z,1020.25
2019-05-15T07:39:48.758Z,1020.19
2019-05-15T07:40:55.483Z,1020.17
2019-05-15T07:41:48.452Z,1020.20
2019-05-15T07:42:48.994Z,1020.21
2019-05-15T07:43:49.217Z,1020.14
2019-05-15T07:44:48.186Z,1020.17
2019-05-15T07:45:53.786Z,1020.15
2019-05-15T07:46:48.848Z,1020.10
2019-05-15T07:47:48.978Z,1020.16
2019-05-15T07:48:49.107Z,1020.11
2019-05-15T07:49:49.105Z,1020.07
2019-05-15T07:50:49.330Z,1020.01
2019-05-15T07:51:48.839Z,1020.01
2019-05-15T07:52:48.540Z,1019.99
2019-05-15T07:53:49.105Z,1020.04
2019-05-15T07:54:48.795Z,1020.01
2019-05-15T07:55:49.383Z,1019.99
2019-05-15T07:56:48.782Z,1019.96
2019-05-15T07:57:49.444Z,1020.02
2019-05-15T07:58:52.105Z,1020.01
2019-05-15T07:59:48.075Z,1019.95
2019-05-15T08:00:49.071Z,1019.92
2019-05-15T08:01:48.846Z,1019.91
2019-05-15T08:02:48.058Z,1019.88
2019-05-15T08:03:56.464Z,1019.91
2019-05-15T08:04:48.246Z,1019.92
2019-05-15T08:05:56.055Z,1019.87
2019-05-15T08:06:49.031Z,1019.85
2019-05-15T08:07:48.778Z,1019.88
2019-05-15T08:08:48.575Z,1019.90
2019-05-15T08:09:48.598Z,1019.91
2019-05-15T08:10:49.029Z,1019.94
2019-05-15T08:11:48.669Z,1019.77
2019-05-15T08:12:49.270Z,1019.81
2019-05-15T08:13:48.627Z,1019.79
2019-05-15T08:14:48.301Z,1019.77
2019-05-15T08:15:48.727Z,1019.78
2019-05-15T08:16:48.550Z,1019.79
2019-05-15T08:18:00.369Z,1019.74
2019-05-15T08:18:48.430Z,1019.79
2019-05-15T08:19:48.538Z,1019.76
2019-05-15T08:20:48.632Z,1019.74
2019-05-15T08:21:51.414Z,1019.73
2019-05-15T08:22:48.924Z,1019.74
2019-05-15T08:23:48.462Z,1019.69
2019-05-15T08:24:48.438Z,1019.67
2019-05-15T08:25:48.547Z,1019.64
2019-05-15T08:26:48.502Z,1019.62
2019-05-15T08:27:48.439Z,1019.67
2019-05-15T08:28:48.505Z,1019.62
2019-05-15T08:29:48.568Z,1019.64
2019-05-15T08:30:49.016Z,1019.60
2019-05-15T08:31:48.217Z,1019.61
2019-05-15T08:32:49.209Z,1019.62
2019-05-15T08:33:48.238Z,1019.64
2019-05-15T08:34:48.062Z,1019.62
2019-05-15T08:35:51.210Z,1019.63
2019-05-15T08:36:48.230Z,1019.62
2019-05-15T08:37:48.869Z,1019.53
2019-05-15T08:38:48.433Z,1019.56
2019-05-15T08:39:48.477Z,1019.56
2019-05-15T08:40:48.595Z,1019.52
2019-05-15T08:41:48.366Z,1019.45
2019-05-15T08:42:54.485Z,1019.57
2019-05-15T08:43:48.670Z,1019.51
2019-05-15T08:44:46.209Z,1019.51
2019-05-15T08:45:46.192Z,1019.49
2019-05-15T08:46:47.978Z,1019.50
2019-05-15T08:47:48.963Z,1019.53
2019-05-15T08:48:46.160Z,1019.55
2019-05-15T08:49:48.351Z,1019.47
2019-05-15T08:50:48.386Z,1019.45
2019-05-15T08:51:48.486Z,1019.43
2019-05-15T08:52:48.528Z,1019.48
2019-05-15T08:53:48.328Z,1019.43
2019-05-15T08:54:48.543Z,1019.37
2019-05-15T08:55:48.122Z,1019.37
2019-05-15T08:56:48.404Z,1019.36
2019-05-15T08:57:54.135Z,1019.23
2019-05-15T08:58:48.608Z,1019.26
2019-05-15T08:59:46.107Z,1019.24
2019-05-15T09:00:46.138Z,1019.24
2019-05-15T09:01:46.022Z,1019.22
2019-05-15T09:02:46.007Z,1019.21
2019-05-15T09:03:48.665Z,1019.14
2019-05-15T09:04:48.494Z,1019.23
2019-05-15T09:05:48.285Z,1019.14
2019-05-15T09:06:49.462Z,1019.12
2019-05-15T09:07:48.457Z,1019.13
2019-05-15T09:08:45.953Z,1019.10
2019-05-15T09:09:45.975Z,1019.14
2019-05-15T09:10:45.954Z,1019.09
2019-05-15T09:11:48.168Z,1019.13
2019-05-15T09:12:45.907Z,1019.07
2019-05-15T09:13:45.902Z,1019.10
2019-05-15T09:14:45.923Z,1019.11
2019-05-15T09:15:48.121Z,1019.08
2019-05-15T09:16:45.860Z,1019.07
2019-05-15T09:17:48.605Z,1019.08
2019-05-15T09:18:48.341Z,1019.10
2019-05-15T09:19:48.021Z,1019.02
2019-05-15T09:20:45.819Z,1018.94
2019-05-15T09:21:45.813Z,1018.99
2019-05-15T09:22:45.798Z,1018.91
2019-05-15T09:23:45.797Z,1018.89
2019-05-15T09:24:45.827Z,1018.91
2019-05-15T09:25:48.929Z,1018.88
2019-05-15T09:26:48.497Z,1018.83
2019-05-15T09:27:45.760Z,1018.77
2019-05-15T09:28:45.733Z,1018.83
2019-05-15T09:29:48.273Z,1018.85
2019-05-15T09:30:48.125Z,1018.81
2019-05-15T09:31:48.137Z,1018.81
2019-05-15T09:32:48.142Z,1018.80
2019-05-15T09:33:45.700Z,1018.74
2019-05-15T09:34:53.950Z,1018.73
2019-05-15T09:35:48.756Z,1018.74
2019-05-15T09:36:48.413Z,1018.71
2019-05-15T09:37:45.646Z,1018.72
2019-05-15T09:38:45.625Z,1018.67
2019-05-15T09:39:45.616Z,1018.68
2019-05-15T09:40:46.658Z,1018.66
2019-05-15T09:41:48.662Z,1018.67
2019-05-15T09:42:45.585Z,1018.61
2019-05-15T09:43:45.576Z,1018.67
2019-05-15T09:44:45.652Z,1018.63
2019-05-15T09:45:45.577Z,1018.67
2019-05-15T09:46:45.594Z,1018.65
2019-05-15T09:47:48.111Z,1018.63
2019-05-15T09:48:50.482Z,1018.61
2019-05-15T09:49:48.482Z,1018.58
2019-05-15T09:50:45.504Z,1018.60
2019-05-15T09:51:45.493Z,1018.58
2019-05-15T09:52:45.508Z,1018.57
2019-05-15T09:53:48.238Z,1018.55
2019-05-15T09:54:45.486Z,1018.50
2019-05-15T09:55:45.463Z,1018.46
2019-05-15T09:56:49.108Z,1018.49
2019-05-15T09:57:45.462Z,1018.49
2019-05-15T09:58:45.414Z,1018.54
2019-05-15T09:59:45.413Z,1018.54
2019-05-15T10:00:50.832Z,1018.52
2019-05-15T10:01:48.260Z,1018.45
2019-05-15T10:02:48.321Z,1018.43
2019-05-15T10:03:45.371Z,1018.46
2019-05-15T10:04:45.359Z,1018.48
2019-05-15T10:05:45.378Z,1018.42
2019-05-15T10:06:45.369Z,1018.47
2019-05-15T10:07:45.322Z,1018.46
2019-05-15T10:08:45.306Z,1018.48
2019-05-15T10:09:45.304Z,1018.47
2019-05-15T10:10:45.321Z,1018.44
2019-05-15T10:11:45.305Z,1018.48
2019-05-15T10:12:45.317Z,1018.48
2019-05-15T10:13:45.254Z,1018.46
2019-05-15T10:14:45.249Z,1018.41
2019-05-15T10:15:48.354Z,1018.38
2019-05-15T10:16:48.112Z,1018.37
2019-05-15T10:17:45.216Z,1018.34
2019-05-15T10:18:45.198Z,1018.34
2019-05-15T10:19:45.193Z,1018.19
2019-05-15T10:20:45.176Z,1018.23
2019-05-15T10:21:45.225Z,1018.26
2019-05-15T10:22:45.160Z,1018.19
2019-05-15T10:23:45.186Z,1018.23
2019-05-15T10:24:45.149Z,1018.19
2019-05-15T10:25:45.143Z,1018.26
2019-05-15T10:26:45.121Z,1018.27
2019-05-15T10:27:45.146Z,1018.20
2019-05-15T10:28:45.093Z,1018.17
2019-05-15T10:29:45.113Z,1018.17
2019-05-15T10:30:45.129Z,1018.17
2019-05-15T10:31:45.059Z,1018.16
2019-05-15T10:32:45.090Z,1018.15
2019-05-15T10:33:45.037Z,1018.17
2019-05-15T10:34:45.075Z,1018.11
2019-05-15T10:35:45.017Z,1018.05
2019-05-15T10:36:45.050Z,1018.04
2019-05-15T10:37:45.068Z,1018.06
2019-05-15T10:38:45.097Z,1018.05
2019-05-15T10:39:44.975Z,1018.05
2019-05-15T10:41:00.070Z,1018.01
2019-05-15T10:41:48.116Z,1018.03
2019-05-15T10:42:44.993Z,1018.02
2019-05-15T10:43:47.250Z,1017.98
2019-05-15T10:44:45.925Z,1018.01
2019-05-15T10:45:44.917Z,1018.02
2019-05-15T10:46:44.908Z,1018.03
2019-05-15T10:47:44.967Z,1017.96
2019-05-15T10:48:44.897Z,1017.93
2019-05-15T10:49:44.865Z,1017.96
2019-05-15T10:50:44.877Z,1017.94
2019-05-15T10:51:44.895Z,1018.06
2019-05-15T10:52:44.840Z,1017.94
2019-05-15T10:53:44.828Z,1017.97
2019-05-15T10:54:44.810Z,1018.09
2019-05-15T10:55:44.802Z,1017.99
2019-05-15T10:56:44.865Z,1018.27
2019-05-15T10:57:45.014Z,1018.14
2019-05-15T10:58:44.779Z,1018.20
2019-05-15T10:59:44.795Z,1017.84
2019-05-15T11:00:44.802Z,1018.12
2019-05-15T11:01:44.741Z,1017.74
2019-05-15T11:02:44.737Z,1017.85
2019-05-15T11:03:44.720Z,1017.72
2019-05-15T11:04:44.738Z,1017.70
2019-05-15T11:05:45.787Z,1017.80
2019-05-15T11:06:44.715Z,1017.73
2019-05-15T11:07:44.695Z,1017.74
2019-05-15T11:08:44.673Z,1017.79
2019-05-15T11:09:44.650Z,1017.76
2019-05-15T11:10:44.680Z,1017.69
2019-05-15T11:11:44.650Z,1017.69
2019-05-15T11:12:44.620Z,1017.71
2019-05-15T11:13:44.609Z,1017.75
2019-05-15T11:14:44.599Z,1017.73
2019-05-15T11:15:44.617Z,1017.70
2019-05-15T11:16:44.580Z,1017.65
2019-05-15T11:17:44.624Z,1017.63
2019-05-15T11:18:44.556Z,1017.61
2019-05-15T11:19:44.544Z,1017.62
2019-05-15T11:20:44.559Z,1017.56
2019-05-15T11:21:44.538Z,1017.56
2019-05-15T11:22:44.740Z,1017.55
2019-05-15T11:23:44.501Z,1017.51
2019-05-15T11:24:44.525Z,1017.56
2019-05-15T11:25:44.477Z,1017.54
2019-05-15T11:26:44.483Z,1017.52
2019-05-15T11:27:44.483Z,1017.46
2019-05-15T11:28:44.452Z,1017.49
2019-05-15T11:29:44.444Z,1017.50
2019-05-15T11:30:44.435Z,1017.53
2019-05-15T11:31:44.444Z,1017.46
2019-05-15T11:32:44.403Z,1017.57
2019-05-15T11:33:44.394Z,1017.53
2019-05-15T11:34:44.431Z,1017.44
2019-05-15T11:35:58.167Z,1017.44
2019-05-15T11:36:45.360Z,1017.48
2019-05-15T11:37:46.600Z,1017.41
2019-05-15T11:38:44.339Z,1017.45
2019-05-15T11:39:46.506Z,1017.54
2019-05-15T11:40:44.353Z,1017.42
2019-05-15T11:41:44.318Z,1017.38
2019-05-15T11:42:44.303Z,1017.40
2019-05-15T11:43:44.291Z,1017.42
2019-05-15T11:44:44.317Z,1017.49
2019-05-15T11:45:44.273Z,1017.45
2019-05-15T11:46:44.263Z,1017.40
2019-05-15T11:47:44.288Z,1017.40
2019-05-15T11:48:44.265Z,1017.36
2019-05-15T11:49:44.275Z,1017.36
2019-05-15T11:50:44.221Z,1017.32
2019-05-15T11:51:44.210Z,1017.30
2019-05-15T11:52:44.214Z,1017.24
2019-05-15T11:53:44.196Z,1017.26
2019-05-15T11:54:44.204Z,1017.24
2019-05-15T11:55:44.199Z,1017.14
2019-05-15T11:56:44.159Z,1017.25
2019-05-15T11:57:47.592Z,1017.21
2019-05-15T11:58:45.135Z,1017.14
2019-05-15T11:59:45.819Z,1017.21
2019-05-15T12:00:44.149Z,1017.13
2019-05-15T12:01:44.127Z,1017.14
2019-05-15T12:02:44.108Z,1017.13
2019-05-15T12:03:44.094Z,1017.12
2019-05-15T12:04:44.067Z,1017.12
2019-05-15T12:05:44.091Z,1017.18
2019-05-15T12:06:58.168Z,1017.10
2019-05-15T12:07:47.896Z,1017.10
2019-05-15T12:08:44.033Z,1017.16
2019-05-15T12:09:44.025Z,1017.03
2019-05-15T12:10:44.004Z,1017.11
2019-05-15T12:11:44.046Z,1017.06
2019-05-15T12:12:43.993Z,1017.01
2019-05-15T12:13:43.983Z,1017.04
2019-05-15T12:14:43.970Z,1017.03
2019-05-15T12:15:44.014Z,1017.02
2019-05-15T12:17:00.948Z,1017.06
2019-05-15T12:17:44.947Z,1017.03
2019-05-15T12:18:43.981Z,1017.03
2019-05-15T12:19:43.908Z,1017.01
2019-05-15T12:20:43.897Z,1017.02
2019-05-15T12:21:43.934Z,1016.98
2019-05-15T12:22:43.922Z,1016.95
2019-05-15T12:23:43.880Z,1017.06
2019-05-15T12:24:43.890Z,1016.96
2019-05-15T12:25:43.864Z,1016.93
2019-05-15T12:26:43.850Z,1016.97
2019-05-15T12:27:43.987Z,1016.92
2019-05-15T12:28:43.819Z,1016.89
2019-05-15T12:29:43.821Z,1016.84
2019-05-15T12:30:43.829Z,1016.90
2019-05-15T12:31:43.829Z,1016.93
2019-05-15T12:32:43.820Z,1016.88
2019-05-15T12:33:43.764Z,1016.98
2019-05-15T12:34:43.806Z,1016.97
2019-05-15T12:35:43.759Z,1016.96
2019-05-15T12:37:44.752Z,1016.88
2019-05-15T12:38:43.714Z,1016.96
2019-05-15T12:39:43.731Z,1016.84
2019-05-15T12:59:44.858Z,1016.46
2019-05-15T13:00:43.777Z,1016.45
2019-05-15T13:01:43.493Z,1016.37
2019-05-15T13:02:43.506Z,1016.41
2019-05-15T13:03:43.478Z,1016.42
2019-05-15T13:04:43.449Z,1016.38
2019-05-15T13:05:43.450Z,1016.42
2019-05-15T13:06:49.406Z,1016.34
2019-05-15T13:07:44.455Z,1016.42
2019-05-15T13:08:43.427Z,1016.34
2019-05-15T13:09:43.399Z,1016.37
2019-05-15T13:10:43.422Z,1016.33
2019-05-15T13:11:43.394Z,1016.35
2019-05-15T13:12:59.333Z,1016.33
2019-05-15T13:13:44.351Z,1016.36
2019-05-15T13:14:43.366Z,1016.41
2019-05-15T13:15:43.372Z,1016.38
2019-05-15T13:16:43.328Z,1016.29
2019-05-15T13:17:43.305Z,1016.24
2019-05-15T13:18:43.303Z,1016.23
2019-05-15T13:19:43.289Z,1016.26
2019-05-15T13:20:43.298Z,1016.23
2019-05-15T13:21:43.362Z,1016.27
2019-05-15T13:22:43.268Z,1016.21
2019-05-15T13:23:43.278Z,1016.23
2019-05-15T13:24:43.277Z,1016.22
2019-05-15T13:25:43.344Z,1016.20
2019-05-15T13:26:43.471Z,1016.15
2019-05-15T13:27:43.219Z,1016.16
2019-05-15T13:28:43.191Z,1016.17
2019-05-15T13:29:43.200Z,1016.15
2019-05-15T13:30:43.273Z,1016.17
2019-05-15T13:31:43.204Z,1016.11
2019-05-15T13:32:43.148Z,1016.03
2019-05-15T13:33:43.172Z,1016.16
2019-05-15T13:34:43.139Z,1016.09
2019-05-15T13:35:45.573Z,1016.12
2019-05-15T13:36:43.157Z,1016.10
2019-05-15T13:37:43.100Z,1016.11
2019-05-15T13:38:43.132Z,1016.09
2019-05-15T13:39:43.150Z,1016.11
2019-05-15T13:40:43.065Z,1016.07
2019-05-15T13:41:43.090Z,1016.02
2019-05-15T13:42:43.093Z,1015.99
2019-05-15T13:43:43.034Z,1016.03
2019-05-15T13:44:43.048Z,1016.03
2019-05-15T13:45:43.014Z,1016.05
2019-05-15T13:46:43.012Z,1015.94
2019-05-15T13:47:43.031Z,1015.92
2019-05-15T13:48:43.057Z,1015.98
2019-05-15T13:49:43.003Z,1015.97
2019-05-15T13:50:42.981Z,1015.96
2019-05-15T13:51:42.980Z,1016.05
2019-05-15T13:52:42.954Z,1016.09
2019-05-15T13:53:43.005Z,1015.97
2019-05-15T13:54:42.927Z,1016.02
2019-05-15T13:55:43.175Z,1016.00
2019-05-15T13:56:42.924Z,1015.93
2019-05-15T13:57:42.886Z,1015.98
2019-05-15T13:58:42.921Z,1015.90
2019-05-15T13:59:42.873Z,1015.94
2019-05-15T14:00:42.871Z,1015.95
2019-05-15T14:01:42.844Z,1016.04
2019-05-15T14:02:42.873Z,1016.00
2019-05-15T14:03:42.832Z,1015.89
2019-05-15T14:04:42.849Z,1015.98
2019-05-15T14:05:45.097Z,1015.88
2019-05-15T14:06:42.823Z,1015.99
2019-05-15T14:07:49.377Z,1015.89
2019-05-15T14:08:43.800Z,1015.97
2019-05-15T14:09:44.638Z,1015.99
2019-05-15T14:10:42.800Z,1015.95
2019-05-15T14:11:43.795Z,1015.93
2019-05-15T14:12:42.728Z,1015.88
2019-05-15T14:13:42.846Z,1015.87
2019-05-15T14:14:42.703Z,1015.82
2019-05-15T14:15:42.729Z,1015.86
2019-05-15T14:16:43.176Z,1015.86
2019-05-15T14:17:42.689Z,1015.83
2019-05-15T14:18:42.766Z,1015.86
2019-05-15T14:19:42.673Z,1015.82
2019-05-15T14:20:42.704Z,1015.87
2019-05-15T14:21:42.833Z,1015.88
2019-05-15T14:22:42.666Z,1015.82
2019-05-15T14:23:42.885Z,1015.83
2019-05-15T14:24:42.726Z,1015.85
2019-05-15T14:25:42.617Z,1015.81
2019-05-15T14:26:42.617Z,1015.81
2019-05-15T14:27:42.868Z,1015.84
2019-05-15T14:28:42.672Z,1015.78
2019-05-15T14:29:42.657Z,1015.74
2019-05-15T14:30:42.596Z,1015.75
2019-05-15T14:31:42.557Z,1015.78
2019-05-15T14:32:42.533Z,1015.69
2019-05-15T14:33:42.513Z,1015.71
2019-05-15T14:34:42.502Z,1015.63
2019-05-15T14:35:42.522Z,1015.68
2019-05-15T14:36:42.549Z,1015.64
2019-05-15T14:37:42.479Z,1015.70
2019-05-15T14:38:42.467Z,1015.64
2019-05-15T14:39:42.464Z,1015.67
2019-05-15T14:40:42.437Z,1015.66
2019-05-15T14:41:42.969Z,1015.60
2019-05-15T14:42:42.451Z,1015.60
2019-05-15T14:43:42.542Z,1015.58
2019-05-15T14:44:42.399Z,1015.60
2019-05-15T14:45:42.408Z,1015.59
2019-05-15T14:46:42.458Z,1015.47
2019-05-15T14:47:42.366Z,1015.55
2019-05-15T14:48:42.358Z,1015.58
2019-05-15T14:49:45.059Z,1015.53
2019-05-15T14:50:42.439Z,1015.56
2019-05-15T14:51:42.327Z,1015.46
2019-05-15T14:52:42.326Z,1015.42
2019-05-15T14:53:42.313Z,1015.48
2019-05-15T14:54:42.330Z,1015.40
2019-05-15T14:55:44.241Z,1015.44
2019-05-15T14:56:42.277Z,1015.44
2019-05-15T14:57:42.260Z,1015.40
2019-05-15T14:58:42.265Z,1015.38
2019-05-15T14:59:42.289Z,1015.49
2019-05-15T15:00:42.513Z,1015.52
2019-05-15T15:01:42.234Z,1015.48
2019-05-15T15:02:42.280Z,1015.46
2019-05-15T15:03:42.304Z,1015.47
2019-05-15T15:04:42.215Z,1015.45
2019-05-15T15:05:42.179Z,1015.47
2019-05-15T15:06:42.194Z,1015.50
2019-05-15T15:07:42.176Z,1015.39
2019-05-15T15:08:42.167Z,1015.44
2019-05-15T15:09:42.135Z,1015.42
2019-05-15T15:10:42.161Z,1015.42
2019-05-15T15:11:42.119Z,1015.36
2019-05-15T15:12:42.457Z,1015.41
2019-05-15T15:13:43.248Z,1015.36
2019-05-15T15:14:42.092Z,1015.45
2019-05-15T15:15:42.416Z,1015.45
2019-05-15T15:16:42.062Z,1015.42
2019-05-15T15:17:42.060Z,1015.31
2019-05-15T15:18:42.078Z,1015.41
2019-05-15T15:19:42.032Z,1015.32
2019-05-15T15:20:42.072Z,1015.43
2019-05-15T15:21:42.040Z,1015.43
2019-05-15T15:22:42.035Z,1015.39
2019-05-15T15:23:41.998Z,1015.41
2019-05-15T15:24:41.980Z,1015.50
2019-05-15T15:25:41.969Z,1015.48
2019-05-15T15:26:41.998Z,1015.46
2019-05-15T15:27:41.989Z,1015.42
2019-05-15T15:28:41.958Z,1015.48
2019-05-15T15:29:41.995Z,1015.35
2019-05-15T15:30:41.920Z,1015.34
2019-05-15T15:31:41.944Z,1015.36
2019-05-15T15:32:41.909Z,1015.39
2019-05-15T15:33:41.908Z,1015.34
2019-05-15T15:34:41.914Z,1015.39
2019-05-15T15:35:41.872Z,1015.38
2019-05-15T15:36:41.863Z,1015.36
2019-05-15T15:37:41.868Z,1015.34
2019-05-15T15:38:44.145Z,1015.37
2019-05-15T15:39:41.823Z,1015.27
2019-05-15T15:40:41.813Z,1015.31
2019-05-15T15:41:41.803Z,1015.32
2019-05-15T15:42:41.865Z,1015.24
2019-05-15T15:43:41.847Z,1015.25
2019-05-15T15:44:41.795Z,1015.35
2019-05-15T15:45:41.763Z,1015.30
2019-05-15T15:46:41.809Z,1015.27
2019-05-15T15:47:41.889Z,1015.26
2019-05-15T15:48:41.798Z,1015.31
2019-05-15T15:49:41.754Z,1015.25
2019-05-15T15:50:41.819Z,1015.26
2019-05-15T15:51:41.710Z,1015.27
2019-05-15T15:52:41.743Z,1015.30
2019-05-15T15:53:41.729Z,1015.24
2019-05-15T15:54:41.669Z,1015.25
2019-05-15T15:55:41.661Z,1015.22
2019-05-15T15:56:42.290Z,1015.23
2019-05-15T15:57:41.678Z,1015.27
2019-05-15T15:58:41.708Z,1015.26
2019-05-15T15:59:42.639Z,1015.28
2019-05-15T16:00:41.643Z,1015.26
2019-05-15T16:01:41.597Z,1015.22
2019-05-15T16:02:42.692Z,1015.22
2019-05-15T16:03:41.629Z,1015.22
2019-05-15T16:04:41.566Z,1015.16
2019-05-15T16:05:41.665Z,1015.13
2019-05-15T16:06:41.572Z,1015.14
2019-05-15T16:07:43.493Z,1015.16
2019-05-15T16:08:52.178Z,1015.18
2019-05-15T16:09:42.589Z,1015.15
2019-05-15T16:10:41.531Z,1015.18
2019-05-15T16:11:41.608Z,1015.16
2019-05-15T16:12:41.494Z,1015.13
2019-05-15T16:13:41.536Z,1015.10
2019-05-15T16:14:41.991Z,1015.14
2019-05-15T16:15:42.192Z,1015.12
2019-05-15T16:16:41.468Z,1015.09
2019-05-15T16:17:41.568Z,1015.10
2019-05-15T16:18:41.563Z,1015.13
2019-05-15T16:19:41.801Z,1015.07
2019-05-15T16:20:42.276Z,1015.15
2019-05-15T16:21:41.418Z,1015.09
2019-05-15T16:22:43.111Z,1015.16
2019-05-15T16:23:42.406Z,1015.13
2019-05-15T16:24:41.617Z,1015.08
2019-05-15T16:25:41.389Z,1015.15
2019-05-15T16:26:41.420Z,1015.13
2019-05-15T16:27:41.929Z,1015.13
2019-05-15T16:28:41.315Z,1015.11
2019-05-15T16:29:41.340Z,1015.08
2019-05-15T16:30:51.106Z,1015.04
2019-05-15T16:31:44.061Z,1015.04
2019-05-15T16:32:42.450Z,1015.02
2019-05-15T16:33:41.261Z,1015.00
2019-05-15T16:34:41.255Z,1015.02
2019-05-15T16:35:43.018Z,1014.99
2019-05-15T16:36:41.417Z,1014.99
2019-05-15T16:37:41.235Z,1014.98
2019-05-15T16:38:42.346Z,1014.99
2019-05-15T16:39:41.324Z,1015.08
2019-05-15T16:40:41.214Z,1015.06
2019-05-15T16:41:41.276Z,1015.07
2019-05-15T16:42:41.514Z,1015.03
2019-05-15T16:43:41.174Z,1014.98
2019-05-15T16:44:41.150Z,1015.02
2019-05-15T16:45:41.281Z,1015.00
2019-05-15T16:46:41.175Z,1015.00
2019-05-15T16:47:41.556Z,1014.96
2019-05-15T16:48:41.115Z,1014.99
2019-05-15T16:49:41.223Z,1014.96
2019-05-15T16:50:41.129Z,1014.97
2019-05-15T16:51:41.133Z,1015.03
2019-05-15T16:52:41.976Z,1014.99
2019-05-15T16:53:41.278Z,1014.92
2019-05-15T16:54:41.208Z,1015.02
2019-05-15T16:55:41.051Z,1014.91
2019-05-15T16:56:41.083Z,1014.94
2019-05-15T16:57:41.043Z,1015.03
2019-05-15T16:58:41.000Z,1014.99
2019-05-15T16:59:41.089Z,1014.97
2019-05-15T17:00:41.000Z,1015.00
2019-05-15T17:01:40.964Z,1014.99
2019-05-15T17:02:40.998Z,1015.03
2019-05-15T17:03:40.944Z,1014.98
2019-05-15T17:04:40.976Z,1014.97
2019-05-15T17:05:42.474Z,1015.00
2019-05-15T17:06:40.913Z,1014.92
2019-05-15T17:07:40.901Z,1014.98
2019-05-15T17:08:40.943Z,1014.97
2019-05-15T17:09:40.879Z,1014.95
2019-05-15T17:10:40.872Z,1015.01
2019-05-15T17:11:40.881Z,1015.02
2019-05-15T17:12:40.851Z,1014.95
2019-05-15T17:13:40.871Z,1014.95
2019-05-15T17:14:40.895Z,1014.99
2019-05-15T17:15:40.814Z,1014.99
2019-05-15T17:16:40.829Z,1015.03
2019-05-15T17:17:40.799Z,1014.99
2019-05-15T17:18:48.675Z,1015.03
2019-05-15T17:19:40.777Z,1014.98
2019-05-15T17:20:40.958Z,1014.91
2019-05-15T17:21:40.833Z,1014.92
2019-05-15T17:22:40.824Z,1014.93
2019-05-15T17:23:40.816Z,1014.99
2019-05-15T17:24:40.780Z,1014.97
2019-05-15T17:25:40.706Z,1014.98
2019-05-15T17:26:40.727Z,1015.00
2019-05-15T17:27:40.684Z,1014.97
2019-05-15T17:28:40.735Z,1014.96
2019-05-15T17:29:40.685Z,1014.94
2019-05-15T17:30:40.648Z,1014.99
2019-05-15T17:31:40.647Z,1014.95
2019-05-15T17:32:40.961Z,1015.03
2019-05-15T17:33:40.660Z,1014.98
2019-05-15T17:34:40.651Z,1014.99
2019-05-15T17:35:40.596Z,1015.04
2019-05-15T17:36:40.587Z,1014.97
2019-05-15T17:37:40.581Z,1014.98
2019-05-15T17:38:40.581Z,1014.96
2019-05-15T17:39:41.737Z,1014.89
2019-05-15T17:40:40.544Z,1014.94
2019-05-15T17:41:40.532Z,1014.96
2019-05-15T17:42:40.531Z,1014.97
2019-05-15T17:43:40.512Z,1014.97
2019-05-15T17:44:40.562Z,1014.93
2019-05-15T17:45:40.503Z,1014.95
2019-05-15T17:46:40.494Z,1014.92
2019-05-15T17:47:40.830Z,1014.96
2019-05-15T17:48:40.484Z,1014.93
2019-05-15T17:49:40.488Z,1014.97
2019-05-15T17:50:48.649Z,1014.91
2019-05-15T17:51:44.491Z,1014.94
2019-05-15T17:52:40.416Z,1014.95
2019-05-15T17:53:40.412Z,1014.95
2019-05-15T17:54:40.487Z,1015.01
2019-05-15T17:55:40.423Z,1014.92
2019-05-15T17:56:40.386Z,1014.97
2019-05-15T17:57:40.365Z,1014.93
2019-05-15T17:58:40.365Z,1014.99
2019-05-15T17:59:40.391Z,1014.93
2019-05-15T18:00:40.379Z,1014.89
2019-05-15T18:01:40.436Z,1014.94
2019-05-15T18:02:40.339Z,1014.89
2019-05-15T18:03:40.329Z,1014.94
2019-05-15T18:04:40.323Z,1014.90
2019-05-15T18:05:40.284Z,1014.97
2019-05-15T18:06:40.279Z,1014.90
2019-05-15T18:07:40.304Z,1015.02
2019-05-15T18:08:40.314Z,1015.00
2019-05-15T18:09:50.279Z,1015.00
2019-05-15T18:10:41.225Z,1014.97
2019-05-15T18:11:40.213Z,1014.95
2019-05-15T18:12:40.248Z,1014.96
2019-05-15T18:13:40.202Z,1014.97
2019-05-15T18:14:40.185Z,1015.03
2019-05-15T18:15:40.216Z,1014.99
2019-05-15T18:16:40.174Z,1014.92
2019-05-15T18:17:41.484Z,1014.98
2019-05-15T18:18:40.142Z,1015.03
2019-05-15T18:19:40.134Z,1014.97
2019-05-15T18:20:40.153Z,1014.99
2019-05-15T18:21:40.121Z,1014.95
2019-05-15T18:22:40.108Z,1014.93
2019-05-15T18:23:40.088Z,1014.94
2019-05-15T18:24:40.112Z,1015.03
2019-05-15T18:25:40.081Z,1014.98
2019-05-15T18:26:40.067Z,1015.02